sensor_id;sensor_type;location;lat;lon;timestamp;pressure;altitude;pressure_sealevel;temperature;humidity
75497;BME280;64074;47.540;19.072;2023-12-28T00:01:15;101487.38;;;4.79;79.09
75497;BME280;64074;47.540;19.072;2023-12-28T00:04:26;101493.72;;;4.66;79.34
75497;BME280;64074;47.540;19.072;2023-12-28T00:07:43;101483.69;;;4.61;79.11
75497;BME280;64074;47.540;19.072;2023-12-28T00:11:28;101481.94;;;4.37;79.58
75497;BME280;64074;47.540;19.072;2023-12-28T00:14:57;101485.13;;;4.46;78.93
75497;BME280;64074;47.540;19.072;2023-12-28T00:18:11;101492.56;;;4.62;79.02
75497;BME280;64074;47.540;19.072;2023-12-28T00:21:35;101502.66;;;4.48;79.40
75497;BME280;64074;47.540;19.072;2023-12-28T00:24:45;101505.72;;;4.52;79.33
75497;BME280;64074;47.540;19.072;2023-12-28T00:28:21;101509.91;;;4.48;78.98
75497;BME280;64074;47.540;19.072;2023-12-28T00:31:31;101500.63;;;4.44;79.76
75497;BME280;64074;47.540;19.072;2023-12-28T00:34:36;101516.53;;;4.45;80.01
75497;BME280;64074;47.540;19.072;2023-12-28T00:37:55;101502.81;;;4.53;79.90
75497;BME280;64074;47.540;19.072;2023-12-28T00:41:03;101510.72;;;4.48;79.99
75497;BME280;64074;47.540;19.072;2023-12-28T00:44:11;101504.22;;;4.56;80.08
75497;BME280;64074;47.540;19.072;2023-12-28T00:47:19;101503.53;;;4.60;79.36
75497;BME280;64074;47.540;19.072;2023-12-28T00:50:28;101503.09;;;4.45;80.34
75497;BME280;64074;47.540;19.072;2023-12-28T00:53:41;101506.59;;;4.46;80.45
75497;BME280;64074;47.540;19.072;2023-12-28T00:56:58;101515.78;;;4.38;80.96
75497;BME280;64074;47.540;19.072;2023-12-28T01:00:20;101518.69;;;4.37;80.77
75497;BME280;64074;47.540;19.072;2023-12-28T01:03:40;101522.19;;;4.19;81.39
75497;BME280;64074;47.540;19.072;2023-12-28T01:06:44;101520.78;;;4.16;81.56
75497;BME280;64074;47.540;19.072;2023-12-28T01:09:49;101512.28;;;4.19;81.19
75497;BME280;64074;47.540;19.072;2023-12-28T01:12:53;101517.88;;;4.36;81.20
75497;BME280;64074;47.540;19.072;2023-12-28T01:16:03;101514.66;;;4.46;80.57
75497;BME280;64074;47.540;19.072;2023-12-28T01:19:10;101517.34;;;4.46;79.78
75497;BME280;64074;47.540;19.072;2023-12-28T01:22:14;101512.41;;;4.43;80.33
75497;BME280;64074;47.540;19.072;2023-12-28T01:25:24;101511.38;;;4.44;80.04
75497;BME280;64074;47.540;19.072;2023-12-28T01:28:55;101508.41;;;4.33;80.35
75497;BME280;64074;47.540;19.072;2023-12-28T01:32:13;101503.34;;;4.25;80.67
75497;BME280;64074;47.540;19.072;2023-12-28T01:35:37;101505.72;;;4.33;81.10
75497;BME280;64074;47.540;19.072;2023-12-28T01:38:57;101500.41;;;4.45;80.45
75497;BME280;64074;47.540;19.072;2023-12-28T01:42:17;101498.13;;;4.49;79.58
75497;BME280;64074;47.540;19.072;2023-12-28T01:45:33;101479.56;;;4.47;79.97
75497;BME280;64074;47.540;19.072;2023-12-28T01:49:00;101490.13;;;4.42;79.91
75497;BME280;64074;47.540;19.072;2023-12-28T01:52:11;101481.94;;;4.37;79.84
75497;BME280;64074;47.540;19.072;2023-12-28T01:55:38;101473.16;;;4.30;80.31
75497;BME280;64074;47.540;19.072;2023-12-28T01:58:51;101475.84;;;4.30;80.19
75497;BME280;64074;47.540;19.072;2023-12-28T02:02:16;101460.19;;;4.27;80.14
75497;BME280;64074;47.540;19.072;2023-12-28T02:05:37;101466.97;;;4.11;80.81
75497;BME280;64074;47.540;19.072;2023-12-28T02:09:02;101473.69;;;4.02;82.44
75497;BME280;64074;47.540;19.072;2023-12-28T02:12:12;101462.59;;;3.98;82.86
75497;BME280;64074;47.540;19.072;2023-12-28T02:15:39;101467.97;;;3.98;83.95
75497;BME280;64074;47.540;19.072;2023-12-28T02:18:54;101464.53;;;3.73;84.67
75497;BME280;64074;47.540;19.072;2023-12-28T02:22:01;101460.56;;;3.76;84.79
75497;BME280;64074;47.540;19.072;2023-12-28T02:25:10;101454.91;;;3.84;85.09
75497;BME280;64074;47.540;19.072;2023-12-28T02:28:23;101454.78;;;3.97;84.22
75497;BME280;64074;47.540;19.072;2023-12-28T02:31:49;101455.59;;;3.97;83.44
75497;BME280;64074;47.540;19.072;2023-12-28T02:35:08;101452.69;;;3.99;83.41
75497;BME280;64074;47.540;19.072;2023-12-28T02:38:20;101439.84;;;4.01;83.11
75497;BME280;64074;47.540;19.072;2023-12-28T02:41:45;101434.94;;;3.98;83.29
75497;BME280;64074;47.540;19.072;2023-12-28T02:45:00;101432.19;;;3.86;83.54
75497;BME280;64074;47.540;19.072;2023-12-28T02:48:09;101434.50;;;3.83;83.31
75497;BME280;64074;47.540;19.072;2023-12-28T02:51:21;101436.50;;;3.87;83.69
75497;BME280;64074;47.540;19.072;2023-12-28T02:54:54;101433.22;;;3.85;83.37
75497;BME280;64074;47.540;19.072;2023-12-28T02:58:05;101433.66;;;3.82;83.40
75497;BME280;64074;47.540;19.072;2023-12-28T03:01:19;101430.31;;;3.87;83.57
75497;BME280;64074;47.540;19.072;2023-12-28T03:04:32;101421.59;;;3.91;82.91
75497;BME280;64074;47.540;19.072;2023-12-28T03:07:42;101428.91;;;3.84;82.81
75497;BME280;64074;47.540;19.072;2023-12-28T03:11:12;101423.47;;;3.73;83.60
75497;BME280;64074;47.540;19.072;2023-12-28T03:14:30;101426.16;;;3.73;84.14
75497;BME280;64074;47.540;19.072;2023-12-28T03:17:56;101418.69;;;3.75;84.34
75497;BME280;64074;47.540;19.072;2023-12-28T03:21:28;101423.03;;;3.76;84.23
75497;BME280;64074;47.540;19.072;2023-12-28T03:24:39;101420.72;;;3.79;84.01
75497;BME280;64074;47.540;19.072;2023-12-28T03:27:55;101403.72;;;3.85;83.87
75497;BME280;64074;47.540;19.072;2023-12-28T03:31:26;101396.25;;;3.87;83.00
75497;BME280;64074;47.540;19.072;2023-12-28T03:34:56;101410.72;;;3.86;82.85
75497;BME280;64074;47.540;19.072;2023-12-28T03:38:17;101401.03;;;3.85;82.85
75497;BME280;64074;47.540;19.072;2023-12-28T03:41:42;101403.72;;;3.85;82.44
75497;BME280;64074;47.540;19.072;2023-12-28T03:45:05;101399.84;;;3.81;82.25
75497;BME280;64074;47.540;19.072;2023-12-28T03:48:24;101400.81;;;3.68;82.44
75497;BME280;64074;47.540;19.072;2023-12-28T03:51:45;101395.38;;;3.57;82.91
75497;BME280;64074;47.540;19.072;2023-12-28T03:55:07;101379.75;;;3.54;83.26
75497;BME280;64074;47.540;19.072;2023-12-28T03:58:25;101381.00;;;3.51;82.99
75497;BME280;64074;47.540;19.072;2023-12-28T04:01:39;101380.81;;;3.46;83.10
75497;BME280;64074;47.540;19.072;2023-12-28T04:05:07;101380.81;;;3.46;83.96
75497;BME280;64074;47.540;19.072;2023-12-28T04:08:26;101375.66;;;3.51;84.03
75497;BME280;64074;47.540;19.072;2023-12-28T04:11:40;101388.88;;;3.46;83.80
75497;BME280;64074;47.540;19.072;2023-12-28T04:15:11;101387.97;;;3.34;85.89
75497;BME280;64074;47.540;19.072;2023-12-28T04:18:25;101368.53;;;3.38;86.07
75497;BME280;64074;47.540;19.072;2023-12-28T04:21:43;101371.38;;;3.44;85.67
75497;BME280;64074;47.540;19.072;2023-12-28T04:25:00;101372.03;;;3.39;85.49
75497;BME280;64074;47.540;19.072;2023-12-28T04:28:06;101359.09;;;3.36;85.91
75497;BME280;64074;47.540;19.072;2023-12-28T04:31:17;101363.84;;;3.34;86.12
75497;BME280;64074;47.540;19.072;2023-12-28T04:34:26;101360.97;;;3.35;86.33
75497;BME280;64074;47.540;19.072;2023-12-28T04:37:31;101344.06;;;3.35;85.56
75497;BME280;64074;47.540;19.072;2023-12-28T04:40:42;101351.50;;;3.33;84.94
75497;BME280;64074;47.540;19.072;2023-12-28T04:43:54;101345.78;;;3.29;84.90
75497;BME280;64074;47.540;19.072;2023-12-28T04:47:02;101340.63;;;3.28;84.50
75497;BME280;64074;47.540;19.072;2023-12-28T04:50:12;101335.50;;;3.26;84.18
75497;BME280;64074;47.540;19.072;2023-12-28T04:53:26;101339.22;;;3.25;84.38
75497;BME280;64074;47.540;19.072;2023-12-28T04:56:33;101339.84;;;3.21;84.18
75497;BME280;64074;47.540;19.072;2023-12-28T04:59:44;101341.56;;;3.15;84.15
75497;BME280;64074;47.540;19.072;2023-12-28T05:02:58;101360.19;;;3.10;83.56
75497;BME280;64074;47.540;19.072;2023-12-28T05:06:12;101365.59;;;3.03;84.40
75497;BME280;64074;47.540;19.072;2023-12-28T05:09:30;101355.34;;;3.00;84.22
75497;BME280;64074;47.540;19.072;2023-12-28T05:12:47;101361.28;;;3.02;84.13
75497;BME280;64074;47.540;19.072;2023-12-28T05:16:12;101348.34;;;2.99;84.54
75497;BME280;64074;47.540;19.072;2023-12-28T05:19:40;101352.25;;;2.97;84.44
75497;BME280;64074;47.540;19.072;2023-12-28T05:23:00;101363.63;;;2.92;84.47
75497;BME280;64074;47.540;19.072;2023-12-28T05:26:17;101363.69;;;2.86;84.61
75497;BME280;64074;47.540;19.072;2023-12-28T05:29:20;101356.84;;;2.90;85.39
75497;BME280;64074;47.540;19.072;2023-12-28T05:32:30;101362.22;;;2.90;86.13
75497;BME280;64074;47.540;19.072;2023-12-28T05:35:42;101365.63;;;2.97;86.91
75497;BME280;64074;47.540;19.072;2023-12-28T05:38:55;101352.47;;;2.95;86.66
75497;BME280;64074;47.540;19.072;2023-12-28T05:42:32;101361.72;;;2.99;86.35
75497;BME280;64074;47.540;19.072;2023-12-28T05:45:41;101373.97;;;2.89;86.46
75497;BME280;64074;47.540;19.072;2023-12-28T05:49:12;101376.69;;;2.82;87.87
75497;BME280;64074;47.540;19.072;2023-12-28T05:52:26;101370.09;;;2.85;89.66
75497;BME280;64074;47.540;19.072;2023-12-28T05:56:00;101366.75;;;2.89;89.11
75497;BME280;64074;47.540;19.072;2023-12-28T05:59:12;101373.06;;;2.95;88.36
75497;BME280;64074;47.540;19.072;2023-12-28T06:02:35;101377.81;;;2.99;88.45
75497;BME280;64074;47.540;19.072;2023-12-28T06:05:44;101372.66;;;2.98;87.13
75497;BME280;64074;47.540;19.072;2023-12-28T06:08:54;101368.53;;;2.95;87.58
75497;BME280;64074;47.540;19.072;2023-12-28T06:12:21;101375.34;;;2.98;87.47
75497;BME280;64074;47.540;19.072;2023-12-28T06:15:51;101379.09;;;2.90;87.77
75497;BME280;64074;47.540;19.072;2023-12-28T06:18:55;101368.66;;;2.82;87.70
75497;BME280;64074;47.540;19.072;2023-12-28T06:22:02;101371.06;;;2.65;89.06
75497;BME280;64074;47.540;19.072;2023-12-28T06:25:11;101372.44;;;2.74;89.10
75497;BME280;64074;47.540;19.072;2023-12-28T06:28:21;101379.03;;;2.72;88.07
75497;BME280;64074;47.540;19.072;2023-12-28T06:31:25;101378.25;;;2.65;87.50
75497;BME280;64074;47.540;19.072;2023-12-28T06:34:35;101372.97;;;2.58;87.50
75497;BME280;64074;47.540;19.072;2023-12-28T06:37:43;101385.75;;;2.56;87.16
75497;BME280;64074;47.540;19.072;2023-12-28T06:40:52;101376.41;;;2.65;87.00
75497;BME280;64074;47.540;19.072;2023-12-28T06:43:58;101388.75;;;2.66;86.68
75497;BME280;64074;47.540;19.072;2023-12-28T06:47:05;101394.66;;;2.50;87.35
75497;BME280;64074;47.540;19.072;2023-12-28T06:50:11;101402.09;;;2.48;87.45
75497;BME280;64074;47.540;19.072;2023-12-28T06:53:22;101404.94;;;2.46;86.96
75497;BME280;64074;47.540;19.072;2023-12-28T06:56:26;101405.75;;;2.54;87.25
75497;BME280;64074;47.540;19.072;2023-12-28T06:59:33;101415.19;;;2.56;86.77
75497;BME280;64074;47.540;19.072;2023-12-28T07:02:44;101417.72;;;2.44;86.95
75497;BME280;64074;47.540;19.072;2023-12-28T07:05:53;101410.50;;;2.45;86.15
75497;BME280;64074;47.540;19.072;2023-12-28T07:09:03;101410.66;;;2.57;85.83
75497;BME280;64074;47.540;19.072;2023-12-28T07:12:17;101406.25;;;2.69;86.23
75497;BME280;64074;47.540;19.072;2023-12-28T07:15:35;101400.44;;;2.78;85.50
75497;BME280;64074;47.540;19.072;2023-12-28T07:19:09;101396.44;;;2.88;84.95
75497;BME280;64074;47.540;19.072;2023-12-28T07:22:42;101397.63;;;2.92;84.36
75497;BME280;64074;47.540;19.072;2023-12-28T07:25:52;101398.44;;;2.92;84.02
75497;BME280;64074;47.540;19.072;2023-12-28T07:29:10;101400.59;;;2.84;84.35
75497;BME280;64074;47.540;19.072;2023-12-28T07:32:31;101408.19;;;2.87;84.36
75497;BME280;64074;47.540;19.072;2023-12-28T07:35:41;101417.63;;;2.89;84.95
75497;BME280;64074;47.540;19.072;2023-12-28T07:39:10;101420.25;;;2.96;85.35
75497;BME280;64074;47.540;19.072;2023-12-28T07:42:32;101416.66;;;3.08;84.80
75497;BME280;64074;47.540;19.072;2023-12-28T07:45:53;101423.06;;;3.07;85.26
75497;BME280;64074;47.540;19.072;2023-12-28T07:49:25;101418.31;;;3.09;85.16
75497;BME280;64074;47.540;19.072;2023-12-28T07:52:41;101423.59;;;3.16;85.40
75497;BME280;64074;47.540;19.072;2023-12-28T07:56:06;101419.22;;;3.22;85.21
75497;BME280;64074;47.540;19.072;2023-12-28T07:59:30;101412.66;;;3.18;85.58
75497;BME280;64074;47.540;19.072;2023-12-28T08:02:48;101414.41;;;3.30;84.85
75497;BME280;64074;47.540;19.072;2023-12-28T08:06:06;101408.84;;;3.50;84.55
75497;BME280;64074;47.540;19.072;2023-12-28T08:09:17;101416.91;;;3.87;82.92
75497;BME280;64074;47.540;19.072;2023-12-28T08:12:31;101415.63;;;3.89;82.84
75497;BME280;64074;47.540;19.072;2023-12-28T08:15:36;101413.25;;;3.81;82.56
75497;BME280;64074;47.540;19.072;2023-12-28T08:18:41;101412.44;;;3.81;82.94
75497;BME280;64074;47.540;19.072;2023-12-28T08:21:51;101403.44;;;3.75;83.33
75497;BME280;64074;47.540;19.072;2023-12-28T08:25:12;101423.75;;;3.83;83.33
75497;BME280;64074;47.540;19.072;2023-12-28T08:28:35;101422.03;;;3.88;83.44
75497;BME280;64074;47.540;19.072;2023-12-28T08:31:38;101421.66;;;4.03;83.32
75497;BME280;64074;47.540;19.072;2023-12-28T08:34:46;101417.25;;;4.09;83.19
75497;BME280;64074;47.540;19.072;2023-12-28T08:37:55;101426.94;;;3.91;84.09
75497;BME280;64074;47.540;19.072;2023-12-28T08:41:07;101431.59;;;4.03;83.89
75497;BME280;64074;47.540;19.072;2023-12-28T08:44:20;101435.91;;;4.22;83.73
75497;BME280;64074;47.540;19.072;2023-12-28T08:47:25;101434.31;;;4.14;84.02
75497;BME280;64074;47.540;19.072;2023-12-28T08:50:35;101432.78;;;4.37;83.48
75497;BME280;64074;47.540;19.072;2023-12-28T08:53:50;101429.13;;;4.49;82.71
75497;BME280;64074;47.540;19.072;2023-12-28T08:57:17;101428.78;;;4.57;81.96
75497;BME280;64074;47.540;19.072;2023-12-28T09:00:48;101424.25;;;4.70;81.20
75497;BME280;64074;47.540;19.072;2023-12-28T09:03:58;101424.63;;;4.73;79.76
75497;BME280;64074;47.540;19.072;2023-12-28T09:07:20;101430.16;;;4.90;79.26
75497;BME280;64074;47.540;19.072;2023-12-28T09:10:32;101414.63;;;4.92;78.72
75497;BME280;64074;47.540;19.072;2023-12-28T09:13:42;101406.81;;;5.02;78.56
75497;BME280;64074;47.540;19.072;2023-12-28T09:16:52;101408.09;;;5.00;78.43
75497;BME280;64074;47.540;19.072;2023-12-28T09:20:01;101406.47;;;5.10;77.33
75497;BME280;64074;47.540;19.072;2023-12-28T09:23:08;101408.94;;;5.35;77.30
75497;BME280;64074;47.540;19.072;2023-12-28T09:26:13;101400.72;;;5.42;77.15
75497;BME280;64074;47.540;19.072;2023-12-28T09:29:22;101389.06;;;5.48;76.49
75497;BME280;64074;47.540;19.072;2023-12-28T09:32:40;101379.69;;;5.50;76.10
75497;BME280;64074;47.540;19.072;2023-12-28T09:35:58;101380.63;;;5.56;75.55
75497;BME280;64074;47.540;19.072;2023-12-28T09:39:19;101375.69;;;5.65;75.29
75497;BME280;64074;47.540;19.072;2023-12-28T09:43:13;101360.00;;;5.73;75.70
75497;BME280;64074;47.540;19.072;2023-12-28T09:46:22;101360.22;;;5.83;75.04
75497;BME280;64074;47.540;19.072;2023-12-28T09:49:32;101351.31;;;5.83;74.19
75497;BME280;64074;47.540;19.072;2023-12-28T09:52:53;101351.66;;;5.86;74.25
75497;BME280;64074;47.540;19.072;2023-12-28T09:56:15;101355.72;;;5.89;73.73
75497;BME280;64074;47.540;19.072;2023-12-28T09:59:40;101340.09;;;6.14;73.46
75497;BME280;64074;47.540;19.072;2023-12-28T10:03:00;101329.91;;;6.16;73.09
75497;BME280;64074;47.540;19.072;2023-12-28T10:06:22;101325.22;;;6.24;73.34
75497;BME280;64074;47.540;19.072;2023-12-28T10:09:46;101313.47;;;6.30;73.35
75497;BME280;64074;47.540;19.072;2023-12-28T10:13:10;101319.50;;;6.20;73.56
75497;BME280;64074;47.540;19.072;2023-12-28T10:16:27;101304.25;;;6.42;73.50
75497;BME280;64074;47.540;19.072;2023-12-28T10:19:47;101298.59;;;6.44;72.73
75497;BME280;64074;47.540;19.072;2023-12-28T10:23:16;101288.47;;;6.68;72.58
75497;BME280;64074;47.540;19.072;2023-12-28T10:26:33;101298.63;;;6.61;72.05
75497;BME280;64074;47.540;19.072;2023-12-28T10:29:55;101292.59;;;6.54;71.95
75497;BME280;64074;47.540;19.072;2023-12-28T10:33:07;101292.50;;;6.82;71.38
75497;BME280;64074;47.540;19.072;2023-12-28T10:36:35;101294.13;;;6.83;71.37
75497;BME280;64074;47.540;19.072;2023-12-28T10:40:00;101285.41;;;6.76;71.68
75497;BME280;64074;47.540;19.072;2023-12-28T10:43:16;101282.63;;;7.09;70.91
75497;BME280;64074;47.540;19.072;2023-12-28T10:46:47;101272.78;;;6.98;70.88
75497;BME280;64074;47.540;19.072;2023-12-28T10:50:04;101269.97;;;7.10;70.70
75497;BME280;64074;47.540;19.072;2023-12-28T11:00:30;101259.56;;;7.40;69.61
75497;BME280;64074;47.540;19.072;2023-12-28T11:03:45;101263.38;;;7.66;69.17
75497;BME280;64074;47.540;19.072;2023-12-28T11:11:22;101240.25;;;7.49;70.00
75497;BME280;64074;47.540;19.072;2023-12-28T11:14:47;101237.47;;;7.65;68.95
75497;BME280;64074;47.540;19.072;2023-12-28T11:18:04;101242.94;;;7.70;68.43
75497;BME280;64074;47.540;19.072;2023-12-28T11:21:45;101227.84;;;7.75;68.57
75497;BME280;64074;47.540;19.072;2023-12-28T11:24:56;101221.44;;;7.81;68.38
75497;BME280;64074;47.540;19.072;2023-12-28T11:28:11;101224.47;;;7.89;68.33
75497;BME280;64074;47.540;19.072;2023-12-28T11:31:18;101215.63;;;7.94;68.16
75497;BME280;64074;47.540;19.072;2023-12-28T11:34:32;101210.06;;;8.06;67.88
75497;BME280;64074;47.540;19.072;2023-12-28T11:37:58;101206.84;;;8.09;67.48
75497;BME280;64074;47.540;19.072;2023-12-28T11:41:09;101194.06;;;8.31;67.58
75497;BME280;64074;47.540;19.072;2023-12-28T11:44:16;101189.78;;;8.35;67.38
75497;BME280;64074;47.540;19.072;2023-12-28T11:47:25;101195.59;;;8.54;66.70
75497;BME280;64074;47.540;19.072;2023-12-28T11:50:37;101175.88;;;8.58;66.22
75497;BME280;64074;47.540;19.072;2023-12-28T11:53:46;101169.56;;;8.90;65.86
75497;BME280;64074;47.540;19.072;2023-12-28T11:56:56;101159.88;;;8.94;65.87
75497;BME280;64074;47.540;19.072;2023-12-28T12:00:31;101151.03;;;9.19;64.51
75497;BME280;64074;47.540;19.072;2023-12-28T12:03:48;101153.50;;;9.41;64.97
75497;BME280;64074;47.540;19.072;2023-12-28T12:07:13;101154.59;;;9.40;64.34
75497;BME280;64074;47.540;19.072;2023-12-28T12:10:30;101153.75;;;9.34;64.98
75497;BME280;64074;47.540;19.072;2023-12-28T12:13:51;101154.91;;;9.59;64.94
75497;BME280;64074;47.540;19.072;2023-12-28T12:17:00;101147.06;;;9.72;63.99
75497;BME280;64074;47.540;19.072;2023-12-28T12:20:17;101141.91;;;9.66;64.02
75497;BME280;64074;47.540;19.072;2023-12-28T12:23:25;101137.03;;;9.42;65.03
75497;BME280;64074;47.540;19.072;2023-12-28T12:26:30;101137.03;;;9.57;64.24
75497;BME280;64074;47.540;19.072;2023-12-28T12:29:45;101139.47;;;9.59;64.33
75497;BME280;64074;47.540;19.072;2023-12-28T12:32:55;101137.59;;;9.75;63.56
75497;BME280;64074;47.540;19.072;2023-12-28T12:36:20;101139.72;;;9.47;65.11
75497;BME280;64074;47.540;19.072;2023-12-28T12:39:41;101125.88;;;9.23;65.55
75497;BME280;64074;47.540;19.072;2023-12-28T12:42:58;101125.28;;;9.06;66.57
75497;BME280;64074;47.540;19.072;2023-12-28T12:46:24;101146.38;;;9.09;66.44
75497;BME280;64074;47.540;19.072;2023-12-28T12:49:51;101144.22;;;9.11;66.12
75497;BME280;64074;47.540;19.072;2023-12-28T12:53:13;101143.91;;;8.98;67.04
75497;BME280;64074;47.540;19.072;2023-12-28T12:56:16;101140.06;;;8.88;67.09
75497;BME280;64074;47.540;19.072;2023-12-28T12:59:24;101141.22;;;8.98;66.94
75497;BME280;64074;47.540;19.072;2023-12-28T13:02:33;101122.56;;;8.96;67.63
75497;BME280;64074;47.540;19.072;2023-12-28T13:05:44;101121.19;;;8.93;67.04
75497;BME280;64074;47.540;19.072;2023-12-28T13:08:52;101122.75;;;8.84;67.69
75497;BME280;64074;47.540;19.072;2023-12-28T13:12:00;101123.09;;;8.93;67.48
75497;BME280;64074;47.540;19.072;2023-12-28T13:15:09;101120.41;;;9.03;67.55
75497;BME280;64074;47.540;19.072;2023-12-28T13:18:19;101111.47;;;9.03;68.03
75497;BME280;64074;47.540;19.072;2023-12-28T13:21:23;101113.09;;;8.93;67.88
75497;BME280;64074;47.540;19.072;2023-12-28T13:24:30;101117.69;;;9.03;67.43
75497;BME280;64074;47.540;19.072;2023-12-28T13:27:35;101126.63;;;8.99;67.58
75497;BME280;64074;47.540;19.072;2023-12-28T13:30:44;101121.97;;;8.89;68.05
75497;BME280;64074;47.540;19.072;2023-12-28T13:33:54;101120.38;;;8.93;68.40
75497;BME280;64074;47.540;19.072;2023-12-28T13:37:08;101134.66;;;8.88;68.06
75497;BME280;64074;47.540;19.072;2023-12-28T13:40:24;101124.47;;;9.01;68.17
75497;BME280;64074;47.540;19.072;2023-12-28T13:43:46;101116.28;;;8.85;68.00
75497;BME280;64074;47.540;19.072;2023-12-28T13:47:07;101112.22;;;8.88;67.89
75497;BME280;64074;47.540;19.072;2023-12-28T13:50:17;101129.03;;;8.95;68.59
75497;BME280;64074;47.540;19.072;2023-12-28T13:53:53;101134.13;;;8.91;68.88
75497;BME280;64074;47.540;19.072;2023-12-28T13:57:11;101142.22;;;8.81;68.90
75497;BME280;64074;47.540;19.072;2023-12-28T14:00:23;101140.03;;;8.78;68.78
75497;BME280;64074;47.540;19.072;2023-12-28T14:03:27;101120.94;;;8.95;68.66
75497;BME280;64074;47.540;19.072;2023-12-28T14:06:46;101128.72;;;8.86;68.70
75497;BME280;64074;47.540;19.072;2023-12-28T14:09:59;101132.44;;;8.70;70.08
75497;BME280;64074;47.540;19.072;2023-12-28T14:13:10;101126.25;;;8.80;69.41
75497;BME280;64074;47.540;19.072;2023-12-28T14:16:49;101120.81;;;8.70;70.10
75497;BME280;64074;47.540;19.072;2023-12-28T14:20:13;101123.72;;;8.58;70.56
75497;BME280;64074;47.540;19.072;2023-12-28T14:23:24;101109.97;;;8.64;70.20
75497;BME280;64074;47.540;19.072;2023-12-28T14:26:55;101119.75;;;8.71;70.43
75497;BME280;64074;47.540;19.072;2023-12-28T14:30:10;101129.69;;;8.65;70.18
75497;BME280;64074;47.540;19.072;2023-12-28T14:33:20;101135.88;;;8.55;70.75
75497;BME280;64074;47.540;19.072;2023-12-28T14:36:52;101144.97;;;8.39;71.66
75497;BME280;64074;47.540;19.072;2023-12-28T14:40:20;101135.75;;;8.35;71.19
75497;BME280;64074;47.540;19.072;2023-12-28T14:43:44;101137.28;;;8.26;72.19
75497;BME280;64074;47.540;19.072;2023-12-28T14:47:09;101144.22;;;8.17;72.80
75497;BME280;64074;47.540;19.072;2023-12-28T14:50:29;101151.34;;;8.28;73.32
75497;BME280;64074;47.540;19.072;2023-12-28T14:53:47;101146.03;;;8.38;72.85
75497;BME280;64074;47.540;19.072;2023-12-28T14:57:11;101156.28;;;8.36;73.33
75497;BME280;64074;47.540;19.072;2023-12-28T15:00:31;101154.66;;;8.35;73.42
75497;BME280;64074;47.540;19.072;2023-12-28T15:03:51;101147.38;;;8.36;74.51
75497;BME280;64074;47.540;19.072;2023-12-28T15:07:15;101129.16;;;8.21;73.63
75497;BME280;64074;47.540;19.072;2023-12-28T15:10:32;101130.16;;;8.10;75.10
75497;BME280;64074;47.540;19.072;2023-12-28T15:13:54;101119.59;;;8.08;75.16
75497;BME280;64074;47.540;19.072;2023-12-28T15:17:14;101132.97;;;7.93;75.25
75497;BME280;64074;47.540;19.072;2023-12-28T15:20:40;101141.25;;;7.81;75.69
75497;BME280;64074;47.540;19.072;2023-12-28T15:23:49;101135.56;;;7.78;77.29
75497;BME280;64074;47.540;19.072;2023-12-28T15:26:56;101139.59;;;7.75;77.50
75497;BME280;64074;47.540;19.072;2023-12-28T15:30:06;101135.47;;;7.67;77.30
75497;BME280;64074;47.540;19.072;2023-12-28T15:33:26;101134.66;;;7.67;77.74
75497;BME280;64074;47.540;19.072;2023-12-28T15:36:45;101133.44;;;7.53;77.78
75497;BME280;64074;47.540;19.072;2023-12-28T15:39:57;101114.22;;;7.44;78.08
75497;BME280;64074;47.540;19.072;2023-12-28T15:43:24;101104.16;;;7.39;78.54
75497;BME280;64074;47.540;19.072;2023-12-28T15:46:28;101099.25;;;7.31;78.63
75497;BME280;64074;47.540;19.072;2023-12-28T15:49:38;101103.56;;;7.32;79.25
75497;BME280;64074;47.540;19.072;2023-12-28T15:52:46;101107.53;;;7.25;79.32
75497;BME280;64074;47.540;19.072;2023-12-28T15:55:51;101127.25;;;7.25;79.91
75497;BME280;64074;47.540;19.072;2023-12-28T15:59:19;101127.63;;;7.12;79.36
75497;BME280;64074;47.540;19.072;2023-12-28T16:02:30;101128.06;;;7.04;80.14
75497;BME280;64074;47.540;19.072;2023-12-28T16:05:36;101116.28;;;6.88;80.08
75497;BME280;64074;47.540;19.072;2023-12-28T16:08:48;101119.94;;;6.77;81.52
75497;BME280;64074;47.540;19.072;2023-12-28T16:12:03;101125.06;;;6.78;81.26
75497;BME280;64074;47.540;19.072;2023-12-28T16:15:15;101121.63;;;6.83;82.51
75497;BME280;64074;47.540;19.072;2023-12-28T16:18:19;101115.97;;;6.85;82.38
75497;BME280;64074;47.540;19.072;2023-12-28T16:21:29;101111.16;;;6.87;83.03
75497;BME280;64074;47.540;19.072;2023-12-28T16:25:00;101116.78;;;6.85;82.03
75497;BME280;64074;47.540;19.072;2023-12-28T16:28:12;101112.97;;;6.81;80.60
75497;BME280;64074;47.540;19.072;2023-12-28T16:31:26;101097.38;;;6.83;79.95
75497;BME280;64074;47.540;19.072;2023-12-28T16:34:44;101094.63;;;6.78;80.74
75497;BME280;64074;47.540;19.072;2023-12-28T16:38:00;101092.44;;;6.75;80.56
75497;BME280;64074;47.540;19.072;2023-12-28T16:41:06;101110.03;;;6.61;80.65
75497;BME280;64074;47.540;19.072;2023-12-28T16:44:13;101111.53;;;6.52;80.65
75497;BME280;64074;47.540;19.072;2023-12-28T16:47:23;101110.91;;;6.44;81.28
75497;BME280;64074;47.540;19.072;2023-12-28T16:50:45;101130.31;;;6.46;81.16
75497;BME280;64074;47.540;19.072;2023-12-28T16:54:04;101129.81;;;6.50;81.11
75497;BME280;64074;47.540;19.072;2023-12-28T16:57:23;101120.84;;;6.44;81.28
75497;BME280;64074;47.540;19.072;2023-12-28T17:00:47;101129.75;;;6.44;82.56
75497;BME280;64074;47.540;19.072;2023-12-28T17:04:09;101133.16;;;6.40;82.25
75497;BME280;64074;47.540;19.072;2023-12-28T17:07:26;101133.78;;;6.25;81.46
75497;BME280;64074;47.540;19.072;2023-12-28T17:10:47;101138.69;;;6.11;81.37
75497;BME280;64074;47.540;19.072;2023-12-28T17:14:13;101134.28;;;6.05;82.05
75497;BME280;64074;47.540;19.072;2023-12-28T17:17:34;101132.91;;;6.03;81.73